Time;durP1;ratioP1;P1;durP2;ratioP2;P2;SDS_P1;SDS_P2;PMS_P1;PMS_P2;Temp;Humidity;BMP_temperature;BMP_pressure;BME280_temperature;BME280_humidity;BME280_pressure;Samples;Min_cycle;Max_cycle;Signal;HPM_P1;HPM_P2
2022/04/03 00:01:05;;;;;;;1.70;1.30;;;19.50;53.50;;;;;;4928443;28;92530;-82
2022/04/03 00:03:30;;;;;;;1.88;1.50;;;19.50;53.60;;;;;;4928993;28;92912;-82
2022/04/03 00:05:56;;;;;;;1.55;1.10;;;19.50;53.50;;;;;;4929231;28;93023;-82
2022/04/03 00:08:21;;;;;;;1.73;1.10;;;19.50;53.40;;;;;;4929777;28;92716;-82
2022/04/03 00:10:47;;;;;;;2.13;1.52;;;19.50;53.40;;;;;;4930458;28;92978;-81
2022/04/03 00:13:13;;;;;;;2.15;1.40;;;19.50;53.40;;;;;;4930664;28;91245;-82
2022/04/03 00:15:41;;;;;;;1.80;1.17;;;19.50;53.30;;;;;;4929322;28;93060;-81
2022/04/03 00:18:08;;;;;;;1.88;1.40;;;19.50;53.30;;;;;;4930296;28;93055;-82
2022/04/03 00:20:36;;;;;;;2.35;1.33;;;19.40;53.20;;;;;;4929062;28;93776;-82
2022/04/03 00:23:03;;;;;;;1.60;1.27;;;19.40;53.40;;;;;;4929592;28;93204;-81
2022/04/03 00:25:28;;;;;;;2.28;1.30;;;19.40;53.30;;;;;;4944231;28;96114;-82
2022/04/03 00:27:54;;;;;;;1.63;1.17;;;19.40;53.20;;;;;;4929994;28;93038;-81
2022/04/03 00:30:20;;;;;;;2.33;1.20;;;19.40;53.30;;;;;;4944528;28;92084;-82
2022/04/03 00:32:45;;;;;;;2.58;1.30;;;19.40;53.20;;;;;;4929829;28;92806;-82
2022/04/03 00:35:16;;;;;;;2.83;1.15;;;19.40;53.20;;;;;;4929215;28;93130;-82
2022/04/03 00:37:42;;;;;;;1.90;1.25;;;19.40;53.30;;;;;;4927427;28;93707;-82
2022/04/03 00:40:09;;;;;;;1.30;1.20;;;19.40;53.10;;;;;;4928705;28;92734;-82
2022/04/03 00:42:36;;;;;;;2.08;1.25;;;19.40;53.10;;;;;;4927722;28;92999;-81
2022/04/03 00:45:03;;;;;;;2.38;1.10;;;19.40;53.00;;;;;;4926038;28;98107;-81
2022/04/03 00:47:29;;;;;;;1.92;1.33;;;19.40;53.00;;;;;;4928386;28;95226;-82
2022/04/03 00:49:55;;;;;;;1.30;1.20;;;19.30;52.80;;;;;;4930775;28;92598;-81
2022/04/03 00:52:21;;;;;;;1.55;1.17;;;19.30;52.80;;;;;;4929014;28;93071;-81
2022/04/03 00:54:47;;;;;;;1.80;1.20;;;19.30;52.80;;;;;;4927596;28;92875;-81
2022/04/03 00:57:13;;;;;;;2.45;1.20;;;19.40;52.80;;;;;;4926591;28;95425;-81
2022/04/03 00:59:42;;;;;;;1.88;1.20;;;19.30;52.80;;;;;;4928470;28;92468;-81
2022/04/03 01:02:07;;;;;;;1.85;1.30;;;19.30;52.80;;;;;;4929323;28;92305;-82
2022/04/03 01:04:35;;;;;;;1.80;1.10;;;19.30;52.70;;;;;;4944122;28;95316;-82
2022/04/03 01:07:01;;;;;;;1.10;1.00;;;19.30;52.70;;;;;;4927095;28;95759;-81
2022/04/03 01:09:27;;;;;;;1.13;1.00;;;19.30;52.70;;;;;;4928456;28;93417;-82
2022/04/03 01:11:53;;;;;;;1.58;1.20;;;19.30;52.70;;;;;;4928876;28;92324;-81
2022/04/03 01:14:42;;;;;;;1.80;1.40;;;19.30;52.70;;;;;;4943309;28;96841;-81
2022/04/03 01:17:10;;;;;;;1.80;1.20;;;19.30;52.60;;;;;;4928125;28;93072;-82
2022/04/03 01:19:37;;;;;;;1.80;1.25;;;19.30;52.60;;;;;;4943096;28;92498;-81
2022/04/03 01:22:03;;;;;;;1.65;1.27;;;19.20;52.50;;;;;;4929122;28;92555;-82
2022/04/03 01:24:30;;;;;;;1.98;1.45;;;19.30;52.50;;;;;;4928566;28;93397;-81
2022/04/03 01:26:56;;;;;;;1.75;1.10;;;19.30;52.60;;;;;;4927481;28;92860;-82
2022/04/03 01:29:23;;;;;;;2.17;1.23;;;19.20;52.50;;;;;;4928921;28;92356;-81
2022/04/03 01:31:50;;;;;;;1.10;0.98;;;19.20;52.40;;;;;;4928195;28;92548;-82
2022/04/03 01:34:17;;;;;;;3.03;1.35;;;19.20;52.50;;;;;;4926364;28;94477;-81
2022/04/03 01:36:44;;;;;;;1.42;1.00;;;19.20;52.40;;;;;;4925893;28;93647;-81
2022/04/03 01:39:10;;;;;;;1.20;1.10;;;19.20;52.60;;;;;;4928577;28;93239;-82
2022/04/03 01:41:41;;;;;;;1.85;1.30;;;19.20;52.40;;;;;;4928659;28;93109;-82
2022/04/03 01:44:13;;;;;;;1.40;1.20;;;19.20;52.40;;;;;;4928047;28;93126;-82
2022/04/03 01:46:39;;;;;;;1.30;1.10;;;19.20;52.40;;;;;;4927337;28;92655;-82
2022/04/03 01:49:06;;;;;;;1.27;1.13;;;19.20;52.40;;;;;;4928061;28;92399;-81
2022/04/03 01:51:33;;;;;;;1.70;1.20;;;19.20;52.60;;;;;;4942901;28;91442;-82
2022/04/03 01:54:00;;;;;;;1.83;1.27;;;19.20;52.30;;;;;;4927805;28;92638;-81
2022/04/03 01:56:25;;;;;;;2.40;1.20;;;19.20;52.30;;;;;;4927626;28;92036;-81
2022/04/03 01:58:51;;;;;;;1.52;1.10;;;19.20;52.20;;;;;;4927867;28;93874;-82
2022/04/03 02:01:17;;;;;;;1.40;1.30;;;19.10;52.20;;;;;;4942850;28;92592;-81
2022/04/03 02:03:43;;;;;;;1.75;1.23;;;19.20;52.20;;;;;;4926582;28;92702;-82
2022/04/03 02:06:08;;;;;;;1.10;1.00;;;19.10;52.10;;;;;;4926003;28;92779;-82
2022/04/03 02:08:34;;;;;;;1.77;1.10;;;19.20;52.20;;;;;;4928439;28;92840;-81
2022/04/03 02:11:00;;;;;;;1.80;1.20;;;19.20;52.20;;;;;;4927999;28;92349;-82
2022/04/03 02:13:25;;;;;;;1.92;1.17;;;19.10;52.20;;;;;;4926589;28;93407;-82
2022/04/03 02:15:51;;;;;;;1.33;1.13;;;19.10;52.10;;;;;;4925836;28;92553;-82
2022/04/03 02:18:17;;;;;;;1.55;1.20;;;19.10;52.10;;;;;;4928163;28;92999;-82
2022/04/03 02:20:43;;;;;;;1.67;1.25;;;19.10;52.10;;;;;;4927986;28;93184;-82
2022/04/03 02:23:10;;;;;;;1.30;1.20;;;19.10;51.90;;;;;;4926506;28;93825;-82
2022/04/03 02:25:36;;;;;;;1.42;1.20;;;19.10;51.90;;;;;;4926381;28;93336;-82
2022/04/03 02:28:04;;;;;;;1.55;1.23;;;19.10;51.80;;;;;;4927632;28;92383;-82
2022/04/03 02:30:32;;;;;;;1.20;1.10;;;19.10;51.90;;;;;;4927475;28;93163;-82
2022/04/03 02:33:00;;;;;;;1.58;1.20;;;19.00;51.80;;;;;;4926498;28;92752;-82
2022/04/03 02:35:26;;;;;;;1.55;1.20;;;19.10;52.00;;;;;;4926525;28;92630;-82
2022/04/03 02:37:53;;;;;;;1.75;1.33;;;19.10;51.90;;;;;;4927281;28;93416;-82
2022/04/03 02:40:18;;;;;;;1.27;1.08;;;19.00;51.90;;;;;;4927845;28;92483;-81
2022/04/03 02:42:44;;;;;;;1.20;1.10;;;19.00;51.80;;;;;;4927373;28;93541;-81
2022/04/03 02:45:11;;;;;;;1.40;1.10;;;19.00;51.80;;;;;;4926828;28;92413;-82
2022/04/03 02:47:37;;;;;;;1.50;1.40;;;19.00;51.60;;;;;;4926613;28;93765;-82
2022/04/03 02:50:04;;;;;;;1.30;1.20;;;19.00;51.70;;;;;;4930828;28;92850;-82
2022/04/03 02:52:30;;;;;;;1.20;1.10;;;19.00;51.80;;;;;;4930164;28;92901;-82
2022/04/03 02:54:57;;;;;;;2.10;1.40;;;19.00;51.80;;;;;;4930192;28;92509;-82
2022/04/03 02:57:23;;;;;;;1.52;1.15;;;19.00;51.70;;;;;;4930744;28;92722;-82
2022/04/03 02:59:48;;;;;;;1.30;1.20;;;19.00;51.70;;;;;;4930109;28;93230;-81
2022/04/03 03:02:14;;;;;;;2.17;1.40;;;19.00;51.80;;;;;;4944405;28;95534;-81
2022/04/03 03:04:40;;;;;;;1.55;1.00;;;18.90;51.50;;;;;;4929948;28;92212;-81
2022/04/03 03:07:07;;;;;;;1.45;1.23;;;18.90;51.40;;;;;;4929298;28;92756;-81
2022/04/03 03:09:33;;;;;;;1.30;1.20;;;19.00;51.50;;;;;;4929705;28;92691;-82
2022/04/03 03:11:59;;;;;;;1.25;1.15;;;18.90;51.50;;;;;;4928535;28;94395;-82
2022/04/03 03:14:28;;;;;;;1.30;1.13;;;18.90;51.60;;;;;;4929128;28;93371;-82
2022/04/03 03:16:58;;;;;;;1.20;1.10;;;18.90;51.60;;;;;;4929657;28;92628;-82
2022/04/03 03:19:24;;;;;;;1.55;1.00;;;18.90;51.60;;;;;;4930125;28;92351;-81
2022/04/03 03:21:50;;;;;;;1.15;1.05;;;18.90;51.50;;;;;;4930031;28;92451;-82
2022/04/03 03:24:15;;;;;;;1.67;1.20;;;18.90;51.50;;;;;;4929412;28;92525;-82
2022/04/03 03:26:41;;;;;;;1.67;1.35;;;18.90;51.50;;;;;;4928104;28;92673;-82
2022/04/03 03:29:08;;;;;;;2.67;1.40;;;18.90;51.50;;;;;;4930085;28;92176;-81
2022/04/03 03:31:34;;;;;;;1.85;1.23;;;18.90;51.50;;;;;;4929933;28;93293;-82
2022/04/03 03:34:00;;;;;;;1.40;1.13;;;18.90;51.50;;;;;;4930084;28;92921;-81
2022/04/03 03:36:25;;;;;;;1.23;1.10;;;18.80;51.40;;;;;;4928720;28;93046;-81
2022/04/03 03:38:51;;;;;;;1.25;1.15;;;18.80;51.30;;;;;;4943821;28;92014;-82
2022/04/03 03:41:16;;;;;;;2.22;1.38;;;18.80;51.20;;;;;;4928252;28;93331;-82
2022/04/03 03:43:43;;;;;;;1.60;1.20;;;18.80;51.30;;;;;;4929778;28;92303;-82
2022/04/03 03:46:09;;;;;;;1.42;1.33;;;18.80;51.30;;;;;;4929922;28;92733;-81
2022/04/03 03:48:36;;;;;;;1.85;1.20;;;18.80;51.10;;;;;;4928644;28;92581;-82
2022/04/03 03:51:02;;;;;;;2.15;1.30;;;18.80;51.20;;;;;;4928349;28;93160;-80
2022/04/03 03:53:29;;;;;;;1.50;1.25;;;18.80;51.20;;;;;;4929077;28;92282;-81
2022/04/03 03:55:55;;;;;;;1.90;1.20;;;18.80;51.30;;;;;;4943806;28;92828;-82
2022/04/03 03:58:30;;;;;;;2.15;1.38;;;18.80;51.20;;;;;;4943317;28;92701;-81
2022/04/03 04:00:55;;;;;;;1.08;0.93;;;18.80;51.20;;;;;;4928271;28;93756;-82
2022/04/03 04:03:21;;;;;;;1.15;1.05;;;18.70;51.20;;;;;;4929066;28;93547;-82
2022/04/03 04:05:47;;;;;;;1.80;1.20;;;18.80;51.30;;;;;;4928867;28;92885;-81
2022/04/03 04:08:12;;;;;;;1.52;1.40;;;18.80;51.30;;;;;;4928967;28;92583;-82
2022/04/03 04:10:38;;;;;;;1.20;1.10;;;18.80;51.10;;;;;;4929057;28;92814;-81
2022/04/03 04:13:04;;;;;;;1.50;1.20;;;18.70;51.10;;;;;;4928823;28;92334;-81
2022/04/03 04:15:30;;;;;;;2.00;1.13;;;18.80;51.20;;;;;;4929426;28;93120;-81
2022/04/03 04:17:56;;;;;;;1.30;1.20;;;18.70;51.00;;;;;;4944500;28;92141;-82
2022/04/03 04:20:22;;;;;;;1.67;1.15;;;18.70;51.20;;;;;;4929241;28;92834;-81
2022/04/03 04:22:50;;;;;;;1.45;1.35;;;18.70;51.00;;;;;;4928901;28;95700;-81
2022/04/03 04:25:17;;;;;;;1.58;1.00;;;18.70;51.10;;;;;;4943463;28;93350;-81
2022/04/03 04:27:44;;;;;;;2.88;1.23;;;18.70;50.90;;;;;;4929011;28;91986;-81
2022/04/03 04:30:11;;;;;;;1.08;0.98;;;18.70;51.10;;;;;;4928771;28;93078;-82
2022/04/03 04:32:37;;;;;;;1.02;0.93;;;18.70;51.00;;;;;;4928790;28;92450;-81
2022/04/03 04:35:03;;;;;;;1.30;1.10;;;18.70;50.80;;;;;;4942885;28;92506;-81
2022/04/03 04:37:29;;;;;;;1.15;1.05;;;18.70;50.90;;;;;;4928236;28;92809;-82
2022/04/03 04:40:13;;;;;;;1.40;1.20;;;18.70;50.90;;;;;;4929785;28;93226;-81
2022/04/03 04:42:39;;;;;;;1.65;1.33;;;18.60;50.80;;;;;;4943831;28;95463;-81
2022/04/03 04:45:09;;;;;;;1.63;1.02;;;18.70;50.90;;;;;;4929598;28;92511;-82
2022/04/03 04:47:37;;;;;;;1.67;1.20;;;18.60;50.70;;;;;;4928778;28;92797;-83
2022/04/03 04:50:10;;;;;;;2.80;1.30;;;18.60;50.70;;;;;;4928085;28;94097;-82
2022/04/03 04:52:37;;;;;;;1.35;1.25;;;18.60;50.70;;;;;;4928647;28;93285;-81
2022/04/03 04:55:07;;;;;;;1.55;1.17;;;18.60;50.70;;;;;;4943139;28;93234;-81
2022/04/03 04:57:34;;;;;;;1.40;1.30;;;18.60;50.80;;;;;;4928219;28;92612;-82
2022/04/03 05:00:00;;;;;;;1.95;1.38;;;18.60;50.70;;;;;;4928302;28;93325;-82
2022/04/03 05:02:26;;;;;;;1.63;1.15;;;18.60;50.60;;;;;;4928504;28;92944;-81
2022/04/03 05:05:01;;;;;;;1.67;1.13;;;18.60;50.70;;;;;;4927830;28;92814;-82
2022/04/03 05:07:28;;;;;;;1.58;1.40;;;18.60;50.60;;;;;;4929412;28;92136;-81
2022/04/03 05:09:54;;;;;;;1.38;1.20;;;18.60;50.60;;;;;;4928124;28;93203;-81
2022/04/03 05:12:20;;;;;;;1.60;1.20;;;18.60;50.60;;;;;;4928090;28;92762;-81
2022/04/03 05:14:47;;;;;;;1.70;1.42;;;18.60;50.70;;;;;;4928006;28;93707;-82
2022/04/03 05:17:13;;;;;;;1.42;1.23;;;18.60;50.60;;;;;;4927778;28;92626;-81
2022/04/03 05:19:40;;;;;;;1.65;1.42;;;18.60;50.60;;;;;;4927953;28;92886;-81
2022/04/03 05:22:06;;;;;;;3.10;1.50;;;18.50;50.60;;;;;;4927814;28;92635;-81
2022/04/03 05:24:31;;;;;;;1.90;1.50;;;18.50;50.40;;;;;;4926938;28;93589;-82
2022/04/03 05:26:57;;;;;;;1.85;1.40;;;18.50;50.50;;;;;;4927829;28;92477;-81
2022/04/03 05:29:23;;;;;;;2.75;1.73;;;18.50;50.50;;;;;;4927325;28;93061;-82
2022/04/03 05:31:49;;;;;;;2.65;1.85;;;18.50;50.30;;;;;;4928343;28;92361;-81
2022/04/03 05:34:14;;;;;;;1.48;1.30;;;18.50;50.20;;;;;;4928198;28;92141;-81
2022/04/03 05:36:40;;;;;;;1.80;1.40;;;18.50;50.50;;;;;;4927777;28;92458;-81
2022/04/03 05:39:06;;;;;;;1.70;1.60;;;18.50;50.40;;;;;;4927551;28;93917;-81
2022/04/03 05:41:32;;;;;;;2.50;1.77;;;18.50;50.30;;;;;;4927593;28;93728;-81
2022/04/03 05:43:58;;;;;;;1.90;1.70;;;18.50;50.30;;;;;;4927446;28;92100;-81
2022/04/03 05:46:24;;;;;;;3.13;2.00;;;18.50;50.50;;;;;;4942442;28;92085;-81
2022/04/03 05:48:50;;;;;;;2.70;2.20;;;18.50;50.00;;;;;;4927977;28;93266;-81
2022/04/03 05:51:33;;;;;;;6.63;2.83;;;18.60;50.20;;;;;;4942695;28;95505;-81
2022/04/03 05:53:59;;;;;;;4.90;2.78;;;18.60;49.70;;;;;;4928795;28;92791;-81
2022/04/03 05:56:27;;;;;;;5.43;3.17;;;18.60;50.50;;;;;;4928641;28;91849;-82
2022/04/03 05:58:53;;;;;;;3.35;2.85;;;18.60;50.60;;;;;;4926674;28;92740;-82
2022/04/03 06:01:19;;;;;;;3.53;2.58;;;18.70;50.20;;;;;;4926262;28;92622;-81
2022/04/03 06:03:45;;;;;;;4.60;2.53;;;18.70;50.60;;;;;;4926331;28;93691;-82
2022/04/03 06:06:10;;;;;;;7.97;2.67;;;18.90;51.10;;;;;;4926613;28;93030;-81
2022/04/03 06:08:36;;;;;;;4.82;2.90;;;18.90;50.80;;;;;;4927463;28;92937;-82
2022/04/03 06:11:01;;;;;;;7.95;2.60;;;19.00;50.80;;;;;;4927335;28;92399;-82
2022/04/03 06:13:27;;;;;;;3.00;2.15;;;19.10;51.20;;;;;;4927116;28;93161;-83
2022/04/03 06:15:53;;;;;;;3.30;2.42;;;19.10;51.50;;;;;;4926913;28;92918;-82
2022/04/03 06:18:19;;;;;;;3.30;2.50;;;19.20;51.50;;;;;;4927304;28;92550;-82
2022/04/03 06:20:45;;;;;;;5.97;2.45;;;19.20;51.30;;;;;;4928054;28;92276;-82
2022/04/03 06:23:21;;;;;;;2.53;2.28;;;19.20;51.50;;;;;;4928413;28;92348;-82
2022/04/03 06:25:49;;;;;;;5.10;2.70;;;19.30;51.70;;;;;;4930691;28;92961;-82
2022/04/03 06:28:15;;;;;;;4.20;2.22;;;19.40;51.70;;;;;;4929930;28;94233;-82
2022/04/03 06:30:40;;;;;;;4.32;2.30;;;19.40;52.10;;;;;;4930332;28;93278;-81
2022/04/03 06:33:06;;;;;;;4.93;2.35;;;19.40;52.20;;;;;;4931333;28;92876;-82
2022/04/03 06:35:32;;;;;;;3.63;2.55;;;19.50;52.20;;;;;;4930234;28;92017;-81
2022/04/03 06:37:58;;;;;;;2.65;2.10;;;19.50;52.30;;;;;;4929853;28;93712;-81
2022/04/03 06:40:24;;;;;;;4.22;2.17;;;19.60;53.70;;;;;;4930031;28;92699;-82
2022/04/03 06:42:50;;;;;;;4.30;2.50;;;19.60;53.50;;;;;;4930612;28;93108;-82
2022/04/03 06:45:16;;;;;;;4.15;3.28;;;19.60;53.10;;;;;;4930645;28;91760;-81
2022/04/03 06:47:42;;;;;;;3.30;2.38;;;19.60;51.50;;;;;;4934074;28;92802;-82
2022/04/03 06:50:09;;;;;;;3.88;2.55;;;19.60;51.70;;;;;;4929422;28;93001;-83
2022/04/03 06:52:36;;;;;;;10.93;4.38;;;19.60;51.80;;;;;;4942845;28;93993;-81
2022/04/03 06:55:03;;;;;;;29.90;6.45;;;19.70;51.40;;;;;;4943185;28;93135;-82
2022/04/03 06:57:28;;;;;;;19.75;5.00;;;19.70;50.50;;;;;;4928053;28;92859;-83
2022/04/03 06:59:54;;;;;;;29.23;6.72;;;19.70;51.20;;;;;;4928423;28;95095;-81
2022/04/03 07:02:20;;;;;;;26.85;5.82;;;19.70;50.50;;;;;;4929789;28;92605;-83
2022/04/03 07:04:45;;;;;;;19.73;5.60;;;19.70;50.80;;;;;;4929487;28;93332;-82
2022/04/03 07:07:19;;;;;;;13.93;4.85;;;19.70;51.40;;;;;;4927355;28;92727;-80
2022/04/03 07:09:45;;;;;;;31.88;6.88;;;19.70;51.40;;;;;;4931000;28;92635;-83
2022/04/03 07:12:11;;;;;;;22.65;5.82;;;19.70;51.10;;;;;;4929903;28;92679;-82
2022/04/03 07:14:37;;;;;;;19.65;5.70;;;19.70;51.30;;;;;;4930703;28;92968;-82
2022/04/03 07:17:03;;;;;;;23.02;5.57;;;19.70;51.50;;;;;;4923160;28;96757;-83
2022/04/03 07:19:28;;;;;;;19.67;4.82;;;19.80;52.50;;;;;;4929392;28;93382;-82
2022/04/03 07:21:54;;;;;;;19.67;5.32;;;19.80;52.50;;;;;;4929462;28;92107;-82
2022/04/03 07:24:20;;;;;;;17.80;5.65;;;19.80;52.00;;;;;;4929866;28;91952;-82
2022/04/03 07:26:45;;;;;;;15.32;4.80;;;19.80;52.10;;;;;;4929551;28;93203;-82
2022/04/03 07:29:11;;;;;;;17.85;5.78;;;19.80;52.20;;;;;;4930382;28;94012;-82
2022/04/03 07:31:36;;;;;;;17.08;5.32;;;19.80;52.30;;;;;;4930827;28;92935;-81
2022/04/03 07:34:02;;;;;;;18.70;5.95;;;19.80;52.90;;;;;;4928874;28;92274;-82
2022/04/03 07:36:29;;;;;;;20.40;5.43;;;19.80;52.60;;;;;;4892272;28;92873;-81
2022/04/03 07:38:55;;;;;;;14.85;4.93;;;19.80;52.70;;;;;;4929553;28;94318;-82
2022/04/03 07:41:21;;;;;;;16.80;5.13;;;19.80;52.60;;;;;;4929537;28;93928;-83
2022/04/03 07:43:47;;;;;;;19.35;5.07;;;19.80;52.50;;;;;;4930097;28;93372;-82
2022/04/03 07:46:16;;;;;;;16.65;5.22;;;19.80;52.70;;;;;;4928647;28;92702;-82
2022/04/03 07:48:42;;;;;;;15.20;5.53;;;19.80;52.70;;;;;;4929586;28;93286;-82
2022/04/03 07:51:17;;;;;;;14.38;4.82;;;19.80;52.90;;;;;;4930607;28;92094;-82
2022/04/03 07:53:43;;;;;;;14.18;4.30;;;19.80;52.70;;;;;;4929103;28;91974;-81
2022/04/03 07:56:09;;;;;;;23.77;5.90;;;19.80;52.80;;;;;;4927072;28;94285;-82
2022/04/03 07:58:35;;;;;;;15.15;5.75;;;19.80;52.60;;;;;;4928730;28;92261;-82
2022/04/03 08:01:01;;;;;;;27.08;5.63;;;19.80;52.60;;;;;;4929317;28;92281;-82
2022/04/03 08:03:27;;;;;;;21.73;5.97;;;19.80;52.80;;;;;;4928476;28;93193;-83
2022/04/03 08:05:56;;;;;;;14.32;4.97;;;19.80;52.40;;;;;;4915652;28;96714;-84
2022/04/03 08:08:22;;;;;;;17.23;5.30;;;19.80;51.80;;;;;;4929131;28;93407;-83
2022/04/03 08:10:48;;;;;;;20.40;5.90;;;19.80;51.90;;;;;;4933049;28;93311;-82
2022/04/03 08:13:14;;;;;;;17.08;5.43;;;19.80;52.10;;;;;;4937816;28;93538;-82
2022/04/03 08:15:40;;;;;;;14.75;4.90;;;19.80;52.00;;;;;;4928996;28;92521;-82
2022/04/03 08:18:06;;;;;;;20.00;5.30;;;19.80;52.00;;;;;;4928154;28;92580;-82
2022/04/03 08:20:32;;;;;;;17.08;5.07;;;19.80;51.90;;;;;;4929193;28;92576;-83
2022/04/03 08:23:01;;;;;;;15.15;4.93;;;19.80;52.50;;;;;;4929821;28;92195;-82
2022/04/03 08:25:27;;;;;;;18.90;5.20;;;19.80;52.00;;;;;;4928786;28;93175;-81
2022/04/03 08:27:54;;;;;;;17.08;5.63;;;19.70;52.20;;;;;;4928586;28;92650;-82
2022/04/03 08:30:21;;;;;;;16.73;5.35;;;19.70;52.40;;;;;;4929061;28;93868;-82
2022/04/03 08:32:47;;;;;;;11.57;4.82;;;19.80;52.20;;;;;;4943852;28;92488;-82
2022/04/03 08:35:17;;;;;;;10.98;3.78;;;19.70;51.90;;;;;;4941706;28;95394;-82
2022/04/03 08:37:44;;;;;;;13.15;3.92;;;19.70;52.50;;;;;;4927735;28;92534;-82
2022/04/03 08:40:16;;;;;;;11.05;4.28;;;19.70;51.80;;;;;;4935270;28;93089;-82
2022/04/03 08:42:42;;;;;;;9.63;4.22;;;19.70;51.60;;;;;;4931292;28;93559;-82
2022/04/03 08:45:11;;;;;;;26.00;7.95;;;19.70;51.80;;;;;;4927799;28;94376;-83
2022/04/03 08:47:58;;;;;;;29.83;8.63;;;19.70;51.00;;;;;;4927318;28;92280;-81
2022/04/03 08:50:33;;;;;;;24.83;8.30;;;19.70;51.90;;;;;;4929155;28;92479;-82
2022/04/03 08:53:03;;;;;;;27.63;9.32;;;19.70;52.00;;;;;;4943438;28;92497;-82
2022/04/03 08:55:30;;;;;;;28.88;9.15;;;19.70;52.30;;;;;;4928394;28;93658;-83
2022/04/03 08:57:56;;;;;;;30.85;9.20;;;19.70;52.50;;;;;;4928097;28;94591;-83
2022/04/03 09:00:22;;;;;;;26.67;9.32;;;19.70;52.40;;;;;;4928996;28;92488;-83
2022/04/03 09:02:50;;;;;;;24.08;8.15;;;19.70;52.20;;;;;;4929058;28;92947;-82
2022/04/03 09:05:16;;;;;;;28.83;9.18;;;19.70;52.50;;;;;;4927708;28;93121;-83
2022/04/03 09:07:42;;;;;;;27.38;8.57;;;19.70;52.60;;;;;;4927506;28;95002;-82
2022/04/03 09:10:09;;;;;;;29.55;9.18;;;19.70;52.70;;;;;;4928736;28;92658;-82
2022/04/03 09:12:46;;;;;;;26.67;8.30;;;19.70;52.20;;;;;;4929051;28;92506;-82
2022/04/03 09:15:14;;;;;;;19.25;6.68;;;19.70;52.40;;;;;;4928321;28;93281;-81
2022/04/03 09:17:49;;;;;;;15.52;5.45;;;19.70;52.50;;;;;;4928709;28;92446;-82
2022/04/03 09:20:31;;;;;;;17.40;5.70;;;19.70;51.90;;;;;;4941814;28;94054;-83
2022/04/03 09:23:03;;;;;;;15.98;5.82;;;19.70;52.20;;;;;;4941943;28;92853;-83
2022/04/03 09:25:31;;;;;;;14.88;5.95;;;19.70;49.90;;;;;;4942814;28;95434;-83
2022/04/03 09:27:58;;;;;;;15.88;5.03;;;19.70;51.50;;;;;;4928276;28;92669;-83
2022/04/03 09:30:30;;;;;;;12.75;4.53;;;19.70;51.40;;;;;;4929395;28;92609;-82
2022/04/03 09:32:57;;;;;;;15.20;5.68;;;19.70;51.10;;;;;;4928772;28;92442;-83
2022/04/03 09:35:28;;;;;;;14.60;4.82;;;19.70;51.50;;;;;;4927551;28;93114;-82
2022/04/03 09:38:10;;;;;;;12.35;5.30;;;19.70;51.40;;;;;;4928796;28;93267;-84
2022/04/03 09:40:38;;;;;;;14.32;4.13;;;19.70;51.60;;;;;;4943057;28;92831;-84
2022/04/03 09:43:13;;;;;;;17.08;6.10;;;19.70;50.70;;;;;;4928293;28;92246;-83
2022/04/03 09:45:45;;;;;;;18.88;6.10;;;19.70;50.70;;;;;;4926373;28;93749;-83
2022/04/03 09:48:24;;;;;;;15.48;5.88;;;19.70;51.60;;;;;;4927537;28;93429;-84
2022/04/03 09:51:13;;;;;;;20.67;6.03;;;19.70;52.20;;;;;;4929106;28;92131;-83
2022/04/03 09:53:47;;;;;;;18.33;5.90;;;19.70;52.70;;;;;;4928471;28;92897;-83
2022/04/03 09:56:25;;;;;;;21.17;6.35;;;19.70;52.90;;;;;;4927207;28;93967;-82
2022/04/03 09:58:50;;;;;;;15.70;5.57;;;19.70;53.20;;;;;;4926113;28;92948;-83
2022/04/03 10:01:26;;;;;;;18.90;5.82;;;19.70;53.60;;;;;;4928428;28;92859;-83
2022/04/03 10:03:53;;;;;;;13.57;5.90;;;19.70;53.50;;;;;;4928124;28;92118;-83
2022/04/03 10:06:19;;;;;;;16.50;5.25;;;19.70;53.80;;;;;;4941587;28;95949;-83
2022/04/03 10:08:53;;;;;;;14.65;5.88;;;19.70;53.70;;;;;;4927604;28;93038;-83
2022/04/03 10:11:20;;;;;;;14.20;5.47;;;19.70;53.80;;;;;;4927664;28;94044;-81
2022/04/03 10:13:46;;;;;;;17.90;5.57;;;19.70;53.70;;;;;;4929215;28;92084;-84
2022/04/03 10:16:13;;;;;;;14.25;5.22;;;19.70;53.90;;;;;;4927653;28;92649;-83
2022/04/03 10:18:46;;;;;;;17.90;5.57;;;19.70;53.90;;;;;;4928766;28;92722;-82
2022/04/03 10:21:19;;;;;;;15.65;5.38;;;19.70;54.00;;;;;;4928078;28;92125;-82
2022/04/03 10:23:46;;;;;;;15.43;5.97;;;19.70;53.80;;;;;;4928739;28;92450;-82
2022/04/03 10:26:17;;;;;;;16.10;5.00;;;19.70;53.90;;;;;;4928193;28;92510;-84
2022/04/03 10:28:50;;;;;;;18.98;6.05;;;19.70;53.80;;;;;;4928814;28;92808;-83
2022/04/03 10:31:25;;;;;;;12.20;5.05;;;19.70;53.80;;;;;;4928572;28;92619;-83
2022/04/03 10:33:52;;;;;;;14.15;4.57;;;19.70;53.70;;;;;;4928169;28;92740;-83
2022/04/03 10:36:26;;;;;;;20.38;5.30;;;19.70;53.90;;;;;;4927685;28;93845;-82
2022/04/03 10:39:02;;;;;;;18.75;4.95;;;19.70;53.90;;;;;;4928296;28;93150;-83
2022/04/03 10:41:34;;;;;;;18.38;4.88;;;19.60;54.30;;;;;;4928924;28;92639;-83
2022/04/03 10:44:24;;;;;;;19.73;5.65;;;19.70;54.70;;;;;;4928179;28;92695;-83
2022/04/03 10:47:04;;;;;;;33.42;6.40;;;19.70;55.10;;;;;;4927016;28;92773;-83
2022/04/03 10:49:30;;;;;;;36.17;7.13;;;19.70;55.70;;;;;;4942795;28;95426;-83
2022/04/03 10:52:04;;;;;;;40.50;7.30;;;19.70;55.80;;;;;;4928147;28;92021;-83
2022/04/03 10:54:31;;;;;;;33.42;6.78;;;19.70;56.30;;;;;;4928734;28;91254;-83
2022/04/03 10:57:31;;;;;;;32.50;7.45;;;19.70;56.00;;;;;;4928114;28;92710;-82
2022/04/03 11:00:12;;;;;;;40.67;7.53;;;19.70;53.70;;;;;;4926778;28;95182;-84
2022/04/03 11:02:42;;;;;;;32.42;6.60;;;19.70;55.40;;;;;;4943214;28;93851;-83
2022/04/03 11:05:23;;;;;;;37.58;7.30;;;19.70;54.90;;;;;;4927585;28;92472;-83
2022/04/03 11:07:49;;;;;;;21.88;6.32;;;19.70;54.60;;;;;;4927656;28;92587;-83
2022/04/03 11:10:15;;;;;;;28.30;6.63;;;19.80;54.10;;;;;;4929935;28;93253;-84
2022/04/03 11:12:56;;;;;;;26.85;6.85;;;19.80;53.80;;;;;;4931127;28;92921;-83
2022/04/03 11:15:23;;;;;;;33.92;6.68;;;19.80;53.80;;;;;;4930382;28;92537;-84
2022/04/03 11:17:50;;;;;;;18.42;5.53;;;19.80;53.40;;;;;;4929888;28;92894;-83
2022/04/03 11:21:06;;;;;;;31.08;6.20;;;19.80;52.20;;;;;;4931912;28;92515;-83
2022/04/03 11:23:35;;;;;;;28.20;6.07;;;19.80;53.20;;;;;;4904692;28;92031;-82
2022/04/03 11:26:03;;;;;;;23.38;6.13;;;19.70;53.30;;;;;;4930821;28;92683;-83
2022/04/03 11:28:30;;;;;;;24.23;6.07;;;19.70;53.30;;;;;;4929815;28;94067;-82
2022/04/03 11:30:56;;;;;;;29.10;6.28;;;19.70;53.20;;;;;;4929161;28;96745;-83
2022/04/03 11:33:22;;;;;;;30.05;6.35;;;19.70;53.20;;;;;;4930957;28;92904;-83
2022/04/03 11:35:47;;;;;;;21.30;5.63;;;19.70;53.30;;;;;;4930355;28;92186;-81
2022/04/03 11:38:13;;;;;;;21.38;6.13;;;19.60;53.20;;;;;;4930709;28;92996;-83
2022/04/03 11:40:41;;;;;;;24.52;6.65;;;19.70;53.80;;;;;;4930720;28;92838;-83
2022/04/03 11:43:09;;;;;;;27.02;5.10;;;19.70;53.10;;;;;;4930705;28;92805;-83
2022/04/03 11:45:35;;;;;;;20.65;6.38;;;19.60;53.10;;;;;;4930717;28;92153;-83
2022/04/03 11:48:24;;;;;;;22.40;6.00;;;19.60;52.90;;;;;;4929909;28;92790;-83
2022/04/03 11:51:06;;;;;;;27.10;6.80;;;19.60;53.00;;;;;;4929935;28;92981;-83
2022/04/03 11:53:32;;;;;;;21.40;6.00;;;19.60;53.10;;;;;;4930602;28;93488;-83
2022/04/03 11:56:09;;;;;;;23.23;5.32;;;19.60;53.10;;;;;;4944890;28;92716;-83
2022/04/03 11:58:42;;;;;;;19.83;5.75;;;19.60;53.00;;;;;;4929644;28;93373;-83
2022/04/03 12:01:08;;;;;;;19.95;5.95;;;19.60;53.20;;;;;;4944268;28;96135;-84
2022/04/03 12:03:36;;;;;;;23.25;5.75;;;19.60;53.30;;;;;;4945221;28;92670;-84
2022/04/03 12:06:18;;;;;;;24.50;5.82;;;19.60;53.20;;;;;;4928211;28;93164;-83
2022/04/03 12:08:46;;;;;;;23.27;6.00;;;19.60;53.10;;;;;;4929686;28;92896;-84
2022/04/03 12:11:39;;;;;;;19.15;5.07;;;19.60;53.00;;;;;;4930983;28;92246;-83
2022/04/03 12:14:06;;;;;;;22.55;5.18;;;19.50;53.10;;;;;;4926966;28;92753;-83
2022/04/03 12:16:39;;;;;;;19.98;5.15;;;19.50;53.10;;;;;;4930475;28;92660;-83
2022/04/03 12:19:15;;;;;;;15.65;4.90;;;19.50;53.00;;;;;;4929557;28;93692;-83
2022/04/03 12:21:46;;;;;;;15.48;5.20;;;19.50;53.00;;;;;;4944542;28;96311;-83
2022/04/03 12:24:20;;;;;;;19.02;5.13;;;19.50;53.00;;;;;;4928818;28;92115;-84
2022/04/03 12:26:52;;;;;;;26.27;5.72;;;19.60;52.70;;;;;;4929361;28;92560;-82
2022/04/03 12:29:19;;;;;;;23.13;4.80;;;19.60;52.40;;;;;;4929502;28;93954;-85
2022/04/03 12:31:57;;;;;;;19.70;6.00;;;19.70;52.50;;;;;;4929345;28;92981;-83
2022/04/03 12:34:23;;;;;;;17.08;5.35;;;19.80;52.50;;;;;;4929985;28;93187;-85
2022/04/03 12:36:52;;;;;;;21.85;5.32;;;19.90;52.40;;;;;;4930101;28;91820;-83
2022/04/03 12:39:34;;;;;;;23.70;4.47;;;19.90;52.10;;;;;;4929479;28;93068;-83
2022/04/03 12:42:21;;;;;;;19.95;4.57;;;20.00;52.30;;;;;;4929171;28;92950;-84
2022/04/03 12:45:06;;;;;;;17.38;4.90;;;20.10;52.10;;;;;;4943964;28;93629;-83
2022/04/03 12:47:50;;;;;;;17.13;5.50;;;20.10;51.90;;;;;;4928687;28;92455;-83
2022/04/03 12:50:16;;;;;;;23.77;5.80;;;20.20;52.30;;;;;;4945235;28;95423;-84